createdAt,value
2018-06-25T00:02:14.745Z,30.40
2018-06-25T00:04:47.812Z,28.80
2018-06-25T00:07:20.760Z,30.60
2018-06-25T00:09:53.586Z,31.00
2018-06-25T00:12:27.045Z,32.00
2018-06-25T00:15:00.612Z,27.60
2018-06-25T00:17:33.757Z,26.80
2018-06-25T00:20:07.538Z,28.00
2018-06-25T00:22:40.722Z,31.20
2018-06-25T00:25:13.542Z,33.60
2018-06-25T00:27:47.108Z,32.00
2018-06-25T00:30:20.113Z,32.00
2018-06-25T00:32:53.190Z,30.00
2018-06-25T00:35:26.213Z,31.60
2018-06-25T00:37:59.400Z,30.80
2018-06-25T00:40:32.242Z,30.40
2018-06-25T00:43:05.347Z,30.60
2018-06-25T00:45:38.383Z,31.20
2018-06-25T00:48:11.238Z,31.20
2018-06-25T00:50:43.809Z,30.00
2018-06-25T00:53:16.830Z,30.80
2018-06-25T00:55:49.510Z,33.00
2018-06-25T00:58:22.295Z,32.40
2018-06-25T01:00:54.962Z,34.60
2018-06-25T01:03:27.974Z,33.00
2018-06-25T01:06:00.362Z,34.20
2018-06-25T01:08:33.647Z,35.60
2018-06-25T01:11:07.045Z,33.20
2018-06-25T01:13:39.875Z,35.20
2018-06-25T01:16:12.839Z,32.60
2018-06-25T01:18:45.553Z,35.00
2018-06-25T01:21:18.411Z,38.80
2018-06-25T01:23:51.290Z,38.60
2018-06-25T01:26:24.555Z,34.40
2018-06-25T01:28:57.457Z,33.60
2018-06-25T01:31:30.634Z,35.00
2018-06-25T01:34:03.462Z,36.40
2018-06-25T01:36:36.323Z,36.00
2018-06-25T01:39:11.969Z,35.00
2018-06-25T01:41:44.872Z,34.80
2018-06-25T01:44:17.565Z,32.60
2018-06-25T01:46:50.276Z,32.40
2018-06-25T01:49:24.117Z,33.00
2018-06-25T01:51:57.416Z,31.40
2018-06-25T01:54:29.963Z,32.80
2018-06-25T01:57:02.455Z,31.20
2018-06-25T01:59:35.372Z,32.00
2018-06-25T02:02:07.760Z,32.60
2018-06-25T02:04:41.137Z,32.00
2018-06-25T02:07:14.297Z,32.00
2018-06-25T02:09:47.098Z,29.00
2018-06-25T02:12:19.766Z,30.40
2018-06-25T02:14:52.590Z,32.40
2018-06-25T02:17:25.580Z,32.00
2018-06-25T02:19:58.966Z,32.00
2018-06-25T02:22:32.172Z,30.00
2018-06-25T02:25:05.287Z,32.00
2018-06-25T02:27:38.351Z,32.40
2018-06-25T02:30:11.030Z,31.80
2018-06-25T02:32:43.395Z,33.60
2018-06-25T02:35:16.269Z,32.00
2018-06-25T02:37:48.674Z,35.20
2018-06-25T02:40:21.859Z,32.00
2018-06-25T02:42:53.985Z,30.40
2018-06-25T02:45:27.357Z,34.20
2018-06-25T02:47:59.767Z,36.20
2018-06-25T02:50:33.799Z,32.40
2018-06-25T02:53:07.250Z,31.60
2018-06-25T02:55:40.174Z,32.00
2018-06-25T02:58:13.210Z,32.80
2018-06-25T03:00:46.084Z,35.80
2018-06-25T03:03:18.791Z,32.00
2018-06-25T03:05:51.703Z,33.20
2018-06-25T03:08:25.426Z,33.00
2018-06-25T03:10:58.142Z,32.80
2018-06-25T03:13:30.455Z,30.00
2018-06-25T03:16:02.952Z,32.00
2018-06-25T03:18:35.809Z,32.00
2018-06-25T03:21:07.848Z,30.40
2018-06-25T03:23:40.354Z,29.00
2018-06-25T03:26:13.671Z,30.00
2018-06-25T03:28:46.451Z,31.80
2018-06-25T03:31:19.360Z,27.80
2018-06-25T03:33:52.172Z,32.60
2018-06-25T03:36:25.065Z,32.40
2018-06-25T03:38:58.024Z,31.40
2018-06-25T03:41:30.279Z,34.40
2018-06-25T03:44:03.018Z,32.60
2018-06-25T03:46:35.742Z,30.40
2018-06-25T03:49:08.113Z,32.00
2018-06-25T03:51:42.039Z,32.20
2018-06-25T03:54:15.092Z,32.60
2018-06-25T03:56:47.942Z,32.20
2018-06-25T03:59:20.907Z,29.20
2018-06-25T04:01:53.909Z,34.80
2018-06-25T04:04:26.918Z,33.80
2018-06-25T04:06:59.758Z,31.00
2018-06-25T04:09:32.653Z,32.20
2018-06-25T04:12:04.997Z,35.00
2018-06-25T04:14:37.685Z,32.00
2018-06-25T04:17:10.635Z,33.60
2018-06-25T04:19:43.698Z,32.20
2018-06-25T04:22:16.387Z,32.20
2018-06-25T04:24:48.619Z,32.00
2018-06-25T04:27:21.301Z,33.40
2018-06-25T04:29:54.219Z,29.40
2018-06-25T04:32:26.592Z,32.40
2018-06-25T04:34:59.623Z,30.20
2018-06-25T04:37:32.549Z,30.00
2018-06-25T04:40:05.592Z,30.80
2018-06-25T04:42:38.400Z,30.20
2018-06-25T04:45:11.023Z,26.20
2018-06-25T04:47:44.011Z,30.00
2018-06-25T04:50:16.336Z,33.60
2018-06-25T04:52:49.417Z,26.20
2018-06-25T04:55:24.728Z,29.00
2018-06-25T04:57:59.484Z,25.20
2018-06-25T05:00:32.735Z,28.60
2018-06-25T05:03:05.641Z,24.20
2018-06-25T05:05:37.846Z,33.00
2018-06-25T05:08:10.179Z,28.20
2018-06-25T05:10:42.742Z,32.20
2018-06-25T05:13:15.497Z,31.40
2018-06-25T05:15:48.438Z,30.40
2018-06-25T05:18:21.450Z,29.60
2018-06-25T05:20:54.367Z,30.00
2018-06-25T05:23:27.009Z,29.20
2018-06-25T05:25:59.376Z,25.60
2018-06-25T05:28:32.007Z,30.00
2018-06-25T05:31:05.038Z,29.80
2018-06-25T05:33:38.506Z,29.80
2018-06-25T05:36:10.711Z,31.00
2018-06-25T05:38:43.952Z,29.60
2018-06-25T05:41:19.335Z,31.20
2018-06-25T05:43:52.252Z,28.60
2018-06-25T05:46:24.856Z,28.60
2018-06-25T05:48:57.873Z,31.60
2018-06-25T05:51:30.852Z,29.00
2018-06-25T05:54:04.118Z,31.00
2018-06-25T05:56:36.529Z,28.20
2018-06-25T05:59:09.858Z,26.80
2018-06-25T06:01:42.605Z,31.00
2018-06-25T06:04:15.302Z,30.00
2018-06-25T06:06:47.487Z,29.00
2018-06-25T06:09:20.485Z,28.20
2018-06-25T06:11:52.889Z,31.00
2018-06-25T06:14:25.916Z,32.40
2018-06-25T06:16:58.826Z,30.00
2018-06-25T06:19:31.167Z,27.80
2018-06-25T06:22:04.019Z,29.40
2018-06-25T06:24:36.422Z,31.60
2018-06-25T06:27:08.707Z,31.60
2018-06-25T06:29:41.623Z,29.20
2018-06-25T06:32:14.923Z,31.80
2018-06-25T06:34:47.288Z,31.40
2018-06-25T06:37:19.568Z,31.20
2018-06-25T06:39:52.686Z,30.80
2018-06-25T06:42:25.336Z,32.60
2018-06-25T06:44:57.596Z,32.00
2018-06-25T06:47:29.868Z,31.20
2018-06-25T06:50:02.357Z,32.20
2018-06-25T06:52:35.055Z,32.00
2018-06-25T06:55:08.174Z,31.60
2018-06-25T06:57:41.086Z,29.60
2018-06-25T07:00:14.725Z,31.60
2018-06-25T07:02:47.453Z,32.00
2018-06-25T07:05:20.260Z,28.60
2018-06-25T07:07:52.536Z,31.60
2018-06-25T07:10:25.393Z,31.80
2018-06-25T07:12:58.205Z,31.60
2018-06-25T07:15:30.921Z,34.80
2018-06-25T07:18:03.211Z,31.40
2018-06-25T07:20:35.877Z,33.20
2018-06-25T07:23:08.248Z,32.40
2018-06-25T07:25:40.605Z,32.00
2018-06-25T07:28:13.055Z,33.40
2018-06-25T07:30:45.714Z,31.80
2018-06-25T07:33:19.127Z,30.80
2018-06-25T07:35:52.000Z,32.00
2018-06-25T07:38:24.535Z,32.40
2018-06-25T07:40:57.756Z,31.00
2018-06-25T07:43:30.427Z,31.00
2018-06-25T07:46:03.392Z,29.00
2018-06-25T07:48:35.661Z,32.00
2018-06-25T07:51:08.145Z,32.40
2018-06-25T07:53:41.048Z,32.40
2018-06-25T07:56:14.281Z,31.80
2018-06-25T07:58:46.859Z,32.60
2018-06-25T08:01:20.395Z,29.20
2018-06-25T08:03:53.079Z,31.20
2018-06-25T08:06:25.476Z,30.80
2018-06-25T08:08:57.514Z,29.20
2018-06-25T08:11:30.017Z,30.60
2018-06-25T08:14:03.347Z,31.00
2018-06-25T08:16:36.992Z,30.80
2018-06-25T08:19:10.397Z,31.60
2018-06-25T08:21:43.297Z,30.40
2018-06-25T08:24:16.635Z,31.20
2018-06-25T08:26:48.922Z,31.00
2018-06-25T08:29:20.881Z,28.60
2018-06-25T08:31:55.465Z,31.00
2018-06-25T08:34:29.972Z,31.00
2018-06-25T08:37:03.588Z,28.20
2018-06-25T08:39:36.850Z,31.60
2018-06-25T08:42:10.052Z,29.60
2018-06-25T08:44:42.321Z,30.40
2018-06-25T08:47:15.404Z,29.00
2018-06-25T08:49:47.905Z,32.60
2018-06-25T08:52:21.017Z,30.20
2018-06-25T08:54:53.471Z,28.80
2018-06-25T08:57:26.398Z,29.00
2018-06-25T08:59:59.669Z,31.00
2018-06-25T09:02:32.718Z,30.00
2018-06-25T09:05:05.671Z,28.80
2018-06-25T09:07:38.704Z,28.20
2018-06-25T09:10:12.243Z,29.60
2018-06-25T09:12:45.757Z,28.80
2018-06-25T09:15:19.000Z,29.00
2018-06-25T09:17:52.083Z,29.00
2018-06-25T09:20:26.013Z,28.40
2018-06-25T09:22:59.335Z,30.40
2018-06-25T09:25:33.301Z,29.60
2018-06-25T09:28:07.483Z,28.20
2018-06-25T09:30:40.273Z,28.20
2018-06-25T09:33:13.306Z,22.40
2018-06-25T09:35:46.137Z,21.60
2018-06-25T09:38:19.624Z,28.80
2018-06-25T09:40:55.490Z,29.00
2018-06-25T09:43:30.460Z,27.80
2018-06-25T09:46:06.040Z,29.00
2018-06-25T09:48:41.934Z,27.40
2018-06-25T09:51:15.545Z,28.00
2018-06-25T09:53:48.354Z,28.40
2018-06-25T09:56:22.002Z,27.20
2018-06-25T09:58:55.294Z,28.80
2018-06-25T10:01:28.447Z,29.20
2018-06-25T10:04:01.622Z,25.00
2018-06-25T10:06:34.582Z,25.40
2018-06-25T10:09:09.579Z,29.80
2018-06-25T10:11:43.016Z,28.80
2018-06-25T10:14:16.557Z,26.60
2018-06-25T10:16:49.973Z,27.60
2018-06-25T10:19:23.684Z,29.00
2018-06-25T10:21:56.942Z,27.80
2018-06-25T10:24:31.501Z,29.00
2018-06-25T10:27:05.188Z,29.80
2018-06-25T10:29:38.437Z,27.20
2018-06-25T10:32:11.944Z,29.40
2018-06-25T10:34:45.630Z,30.60
2018-06-25T10:37:18.929Z,26.40
2018-06-25T10:39:52.729Z,24.40
2018-06-25T10:42:26.570Z,29.00
2018-06-25T10:44:59.786Z,29.20
2018-06-25T10:47:32.742Z,29.60
2018-06-25T10:50:06.426Z,26.80
2018-06-25T10:52:39.531Z,29.00
2018-06-25T10:55:12.915Z,29.00
2018-06-25T10:57:46.186Z,27.00
2018-06-25T11:00:19.284Z,25.60
2018-06-25T11:02:51.970Z,30.20
2018-06-25T11:05:24.634Z,28.80
2018-06-25T11:07:57.317Z,29.00
2018-06-25T11:10:30.606Z,29.00
2018-06-25T11:13:04.011Z,29.20
2018-06-25T11:15:37.342Z,27.00
2018-06-25T11:18:10.636Z,28.60
2018-06-25T11:20:43.670Z,31.20
2018-06-25T11:23:16.959Z,30.60
2018-06-25T11:25:50.072Z,27.40
2018-06-25T11:28:23.761Z,30.60
2018-06-25T11:30:57.244Z,27.60
2018-06-25T11:33:30.440Z,27.80
2018-06-25T11:36:03.675Z,27.00
2018-06-25T11:38:36.394Z,31.80
2018-06-25T11:41:09.454Z,27.60
2018-06-25T11:43:42.491Z,29.20
2018-06-25T11:46:15.925Z,29.80
2018-06-25T11:48:49.619Z,28.40
2018-06-25T11:51:22.761Z,29.00
2018-06-25T11:53:55.956Z,29.40
2018-06-25T11:56:30.171Z,30.20
2018-06-25T11:59:03.510Z,28.20
2018-06-25T12:01:36.727Z,30.20
2018-06-25T12:04:09.629Z,29.40
2018-06-25T12:06:43.337Z,25.80
2018-06-25T12:09:16.482Z,26.80
2018-06-25T12:11:49.493Z,28.40
2018-06-25T12:14:22.668Z,30.40
2018-06-25T12:16:55.634Z,24.60
2018-06-25T12:19:28.822Z,26.20
2018-06-25T12:22:01.870Z,28.60
2018-06-25T12:24:34.960Z,27.60
2018-06-25T12:27:08.070Z,24.20
2018-06-25T12:29:42.479Z,25.00
2018-06-25T12:32:15.858Z,25.40
2018-06-25T12:34:49.261Z,26.80
2018-06-25T12:37:22.850Z,21.20
2018-06-25T12:39:55.954Z,25.80
2018-06-25T12:42:29.406Z,24.00
2018-06-25T12:45:02.775Z,24.40
2018-06-25T12:47:35.975Z,24.00
2018-06-25T12:50:09.109Z,25.80
2018-06-25T12:52:42.619Z,29.00
2018-06-25T12:55:15.811Z,24.60
2018-06-25T12:57:49.128Z,24.40
2018-06-25T13:00:22.561Z,28.80
2018-06-25T13:02:55.593Z,29.00
2018-06-25T13:05:28.767Z,29.80
2018-06-25T13:08:01.948Z,27.60
2018-06-25T13:10:35.389Z,29.00
2018-06-25T13:13:08.658Z,28.80
2018-06-25T13:15:42.217Z,27.40
2018-06-25T13:18:15.984Z,33.60
2018-06-25T13:20:49.398Z,34.00
2018-06-25T13:23:22.554Z,30.60
2018-06-25T13:25:56.295Z,32.00
2018-06-25T13:28:29.330Z,31.40
2018-06-25T13:31:02.457Z,26.40
2018-06-25T13:33:36.049Z,30.00
2018-06-25T13:36:10.936Z,25.60
2018-06-25T13:38:43.962Z,28.20
2018-06-25T13:41:17.918Z,25.40
2018-06-25T13:43:50.797Z,27.20
2018-06-25T13:46:24.212Z,26.00
2018-06-25T13:48:57.366Z,27.60
2018-06-25T13:51:30.472Z,24.60
2018-06-25T13:54:03.433Z,26.00
2018-06-25T13:56:36.530Z,24.80
2018-06-25T13:59:10.271Z,27.60
2018-06-25T14:01:43.492Z,27.00
2018-06-25T14:04:17.453Z,26.20
2018-06-25T14:06:50.404Z,25.20
2018-06-25T14:09:22.493Z,26.00
2018-06-25T14:11:55.804Z,29.60
2018-06-25T14:14:28.669Z,32.40
2018-06-25T14:17:01.779Z,26.60
2018-06-25T14:19:34.838Z,27.00
2018-06-25T14:22:08.057Z,24.60
2018-06-25T14:24:45.542Z,25.40
2018-06-25T14:27:18.348Z,28.80
2018-06-25T14:29:51.484Z,25.20
2018-06-25T14:32:29.026Z,24.40
2018-06-25T14:35:07.277Z,25.00
2018-06-25T14:37:40.524Z,27.80
2018-06-25T14:40:13.636Z,25.60
2018-06-25T14:42:46.682Z,24.20
2018-06-25T14:45:18.811Z,26.00
2018-06-25T14:47:51.264Z,25.80
2018-06-25T14:50:24.293Z,26.00
2018-06-25T14:52:58.438Z,25.40
2018-06-25T14:55:31.291Z,23.00
2018-06-25T14:58:04.421Z,22.60
2018-06-25T15:00:37.903Z,25.80
2018-06-25T15:03:10.698Z,24.00
2018-06-25T15:05:43.699Z,23.60
2018-06-25T15:08:18.604Z,23.80
2018-06-25T15:10:51.923Z,24.20
2018-06-25T15:13:24.810Z,25.00
2018-06-25T15:15:57.478Z,28.00
2018-06-25T15:18:30.442Z,25.00
2018-06-25T15:21:03.550Z,25.00
2018-06-25T15:23:36.078Z,25.60
2018-06-25T15:26:09.693Z,24.80
2018-06-25T15:28:42.813Z,29.00
2018-06-25T15:31:16.426Z,26.00
2018-06-25T15:33:49.288Z,25.60
2018-06-25T15:36:22.394Z,27.00
2018-06-25T15:38:55.662Z,28.80
2018-06-25T15:41:28.970Z,27.00
2018-06-25T15:44:02.111Z,25.40
2018-06-25T15:46:35.354Z,28.00
2018-06-25T15:49:08.573Z,29.00
2018-06-25T15:51:41.444Z,28.00
2018-06-25T15:54:14.331Z,28.60
2018-06-25T15:56:52.069Z,29.00
2018-06-25T15:59:25.997Z,29.20
2018-06-25T16:01:58.968Z,25.80
2018-06-25T16:04:32.510Z,27.20
2018-06-25T16:07:06.098Z,30.60
2018-06-25T16:09:39.103Z,29.40
2018-06-25T16:12:12.337Z,30.00
2018-06-25T16:14:45.236Z,29.00
2018-06-25T16:17:18.584Z,30.80
2018-06-25T16:19:52.666Z,30.00
2018-06-25T16:22:25.692Z,29.80
2018-06-25T16:24:58.681Z,27.20
2018-06-25T16:27:31.872Z,26.80
2018-06-25T16:30:05.226Z,28.80
2018-06-25T16:32:38.714Z,25.40
2018-06-25T16:35:12.149Z,28.40
2018-06-25T16:37:46.244Z,25.60
2018-06-25T16:40:19.329Z,24.80
2018-06-25T16:42:52.909Z,24.60
2018-06-25T16:45:25.913Z,25.80
2018-06-25T16:47:59.606Z,23.00
2018-06-25T16:50:32.780Z,24.40
2018-06-25T16:53:05.942Z,25.60
2018-06-25T16:55:39.190Z,26.80
2018-06-25T16:58:11.954Z,25.40
2018-06-25T17:00:44.918Z,25.80
2018-06-25T17:03:17.979Z,25.20
2018-06-25T17:05:51.933Z,28.60
2018-06-25T17:08:25.212Z,23.40
2018-06-25T17:10:58.570Z,22.00
2018-06-25T17:13:32.197Z,23.80
2018-06-25T17:16:05.458Z,20.60
2018-06-25T17:18:38.935Z,15.80
2018-06-25T17:21:12.006Z,25.60
2018-06-25T17:23:45.021Z,21.20
2018-06-25T17:26:17.921Z,25.00
2018-06-25T17:28:51.728Z,26.00
2018-06-25T17:31:25.116Z,25.40
2018-06-25T17:33:58.456Z,25.00
2018-06-25T17:36:32.281Z,25.40
2018-06-25T17:39:07.231Z,23.80
2018-06-25T17:48:42.926Z,20.00
2018-06-25T17:51:15.739Z,27.40
2018-06-25T17:53:49.057Z,22.20
2018-06-25T17:56:22.465Z,24.40
2018-06-25T17:58:55.710Z,26.80
2018-06-25T18:01:28.462Z,27.60
2018-06-25T18:04:01.808Z,24.60
2018-06-25T18:06:34.070Z,23.00
2018-06-25T18:09:08.202Z,25.00
2018-06-25T18:11:41.410Z,22.60
2018-06-25T18:14:14.798Z,24.80
2018-06-25T18:16:47.756Z,26.40
2018-06-25T18:19:20.941Z,24.80
2018-06-25T18:21:53.855Z,25.80
2018-06-25T18:24:26.927Z,23.00
2018-06-25T18:26:59.737Z,24.00
2018-06-25T18:29:32.858Z,24.40
2018-06-25T18:32:06.871Z,26.40
2018-06-25T18:34:39.899Z,24.40
2018-06-25T18:37:13.350Z,23.80
2018-06-25T18:39:46.931Z,25.00
2018-06-25T18:42:19.904Z,20.00
2018-06-25T18:44:52.692Z,22.00
2018-06-25T18:47:25.524Z,23.00
2018-06-25T18:49:59.241Z,22.20
2018-06-25T18:52:32.451Z,23.20
2018-06-25T18:55:05.754Z,21.60
2018-06-25T18:57:38.780Z,21.80
2018-06-25T19:00:12.255Z,23.20
2018-06-25T19:02:45.749Z,26.80
2018-06-25T19:05:18.388Z,23.20
2018-06-25T19:07:50.924Z,22.20
2018-06-25T19:10:24.298Z,20.60
2018-06-25T19:12:56.768Z,19.20
2018-06-25T19:15:29.829Z,23.80
2018-06-25T19:18:04.295Z,21.20
2018-06-25T19:20:37.008Z,22.00
2018-06-25T19:23:09.677Z,25.80
2018-06-25T19:25:42.802Z,19.80
2018-06-25T19:28:16.099Z,24.40
2018-06-25T19:30:49.307Z,27.60
2018-06-25T19:33:22.353Z,21.20
2018-06-25T19:35:55.725Z,23.40
2018-06-25T19:38:28.436Z,20.00
2018-06-25T19:41:01.978Z,23.80
2018-06-25T19:43:35.141Z,19.40
2018-06-25T19:46:08.501Z,22.00
2018-06-25T19:48:41.190Z,21.60
2018-06-25T19:51:15.901Z,25.20
2018-06-25T19:53:48.664Z,23.20
2018-06-25T19:56:21.980Z,23.80
2018-06-25T19:58:54.628Z,21.80
2018-06-25T20:01:27.285Z,23.00
2018-06-25T20:04:00.653Z,20.40
2018-06-25T20:06:33.647Z,21.20
2018-06-25T20:09:09.583Z,26.80
2018-06-25T20:11:43.017Z,22.80
2018-06-25T20:14:15.180Z,25.60
2018-06-25T20:16:48.359Z,25.00
2018-06-25T20:19:21.159Z,24.00
2018-06-25T20:21:53.652Z,23.40
2018-06-25T20:24:25.828Z,20.80
2018-06-25T20:26:58.510Z,21.00
2018-06-25T20:29:31.441Z,20.00
2018-06-25T20:32:04.627Z,20.00
2018-06-25T20:34:37.462Z,19.80
2018-06-25T20:37:11.860Z,21.20
2018-06-25T20:39:44.289Z,18.40
2018-06-25T20:42:17.552Z,22.40
2018-06-25T20:44:51.074Z,19.20
2018-06-25T20:47:23.668Z,19.60
2018-06-25T20:49:56.297Z,19.80
2018-06-25T20:52:28.796Z,23.00
2018-06-25T20:55:01.926Z,23.80
2018-06-25T20:57:35.149Z,22.20
2018-06-25T21:00:07.795Z,20.40
2018-06-25T21:02:40.664Z,22.20
2018-06-25T21:05:13.654Z,22.00
2018-06-25T21:07:46.747Z,23.00
2018-06-25T21:10:19.696Z,24.60
2018-06-25T21:12:53.413Z,21.80
2018-06-25T21:15:26.082Z,21.80
2018-06-25T21:17:58.858Z,21.60
2018-06-25T21:20:31.644Z,19.40
2018-06-25T21:23:04.775Z,19.80
2018-06-25T21:25:37.642Z,22.60
2018-06-25T21:28:10.968Z,24.00
2018-06-25T21:30:43.596Z,20.00
2018-06-25T21:33:16.683Z,21.20
2018-06-25T21:35:49.713Z,20.40
2018-06-25T21:38:22.813Z,20.80
2018-06-25T21:40:56.244Z,19.60
2018-06-25T21:43:29.368Z,21.60
2018-06-25T21:46:02.260Z,17.80
2018-06-25T21:48:35.351Z,20.00
2018-06-25T21:51:08.329Z,18.00
2018-06-25T21:53:40.837Z,16.80
2018-06-25T21:56:13.704Z,19.60
2018-06-25T21:58:46.994Z,17.80
2018-06-25T22:01:19.135Z,18.20
2018-06-25T22:03:52.494Z,19.80
2018-06-25T22:06:25.419Z,18.00
2018-06-25T22:08:58.740Z,18.80
2018-06-25T22:11:31.387Z,18.60
2018-06-25T22:14:05.611Z,17.20
2018-06-25T22:16:38.490Z,20.20
2018-06-25T22:19:11.420Z,17.20
2018-06-25T22:21:44.916Z,20.00
2018-06-25T22:24:17.622Z,17.60
2018-06-25T22:26:50.384Z,17.60
2018-06-25T22:29:23.251Z,17.40
2018-06-25T22:31:55.864Z,16.20
2018-06-25T22:34:28.831Z,18.00
2018-06-25T22:37:02.078Z,19.00
2018-06-25T22:39:35.637Z,18.80
2018-06-25T22:42:08.729Z,18.40
2018-06-25T22:44:42.177Z,17.40
2018-06-25T22:47:14.504Z,16.00
2018-06-25T22:49:47.572Z,17.20
2018-06-25T22:52:20.240Z,16.80
2018-06-25T22:54:53.741Z,16.60
2018-06-25T22:57:26.315Z,16.80
2018-06-25T22:59:59.511Z,18.00
2018-06-25T23:02:32.122Z,14.80
2018-06-25T23:05:04.817Z,18.80
2018-06-25T23:07:37.264Z,15.60
2018-06-25T23:10:09.748Z,19.40
2018-06-25T23:12:42.789Z,16.40
2018-06-25T23:15:16.780Z,17.80
2018-06-25T23:17:49.797Z,17.80
2018-06-25T23:20:22.718Z,20.20
2018-06-25T23:22:58.837Z,16.80
2018-06-25T23:25:31.382Z,16.60
2018-06-25T23:28:04.594Z,18.80
2018-06-25T23:30:36.987Z,18.60
2018-06-25T23:33:09.554Z,18.40
2018-06-25T23:35:42.134Z,18.00
2018-06-25T23:38:14.476Z,19.80
2018-06-25T23:40:47.536Z,17.40
2018-06-25T23:43:20.138Z,17.40
2018-06-25T23:45:53.532Z,17.60
2018-06-25T23:48:26.228Z,17.00
2018-06-25T23:50:59.200Z,19.00
2018-06-25T23:53:31.501Z,18.60
